createdAt,value
2023-01-29T00:00:09.240Z,8.50
2023-01-29T00:02:35.709Z,8.50
2023-01-29T00:05:16.680Z,8.40
2023-01-29T00:07:48.641Z,8.20
2023-01-29T00:10:15.468Z,8.20
2023-01-29T00:12:42.216Z,8.20
2023-01-29T00:15:08.697Z,8.30
2023-01-29T00:17:35.160Z,8.30
2023-01-29T00:20:01.639Z,8.20
2023-01-29T00:22:28.114Z,8.30
2023-01-29T00:24:54.594Z,8.30
2023-01-29T00:27:21.098Z,8.30
2023-01-29T00:29:47.568Z,8.30
2023-01-29T00:32:14.142Z,8.30
2023-01-29T00:34:40.692Z,8.30
2023-01-29T00:37:07.163Z,8.30
2023-01-29T00:39:46.822Z,8.30
2023-01-29T00:42:14.163Z,8.20
2023-01-29T00:44:40.636Z,8.30
2023-01-29T00:47:07.128Z,8.20
2023-01-29T00:49:33.641Z,8.10
2023-01-29T00:52:00.125Z,8.10
2023-01-29T00:54:26.597Z,8.20
2023-01-29T00:56:53.072Z,8.10
2023-01-29T00:59:19.551Z,8.10
2023-01-29T01:01:46.064Z,8.10
2023-01-29T01:04:12.556Z,8.10
2023-01-29T01:06:39.043Z,8.10
2023-01-29T01:09:05.527Z,8.10
2023-01-29T01:11:32.007Z,8.10
2023-01-29T01:13:58.472Z,8.30
2023-01-29T01:16:25.003Z,8.30
2023-01-29T01:18:51.558Z,8.30
2023-01-29T01:21:18.032Z,8.30
2023-01-29T01:23:44.504Z,8.30
2023-01-29T01:26:11.012Z,8.20
2023-01-29T01:28:37.481Z,8.20
2023-01-29T01:31:04.052Z,8.10
2023-01-29T01:33:30.609Z,8.20
2023-01-29T01:35:57.101Z,8.20
2023-01-29T01:38:23.579Z,8.10
2023-01-29T01:40:50.071Z,8.00
2023-01-29T01:43:16.552Z,8.00
2023-01-29T01:45:43.149Z,8.00
2023-01-29T01:48:09.622Z,8.10
2023-01-29T01:50:36.086Z,8.20
2023-01-29T01:53:02.576Z,8.20
2023-01-29T01:55:29.297Z,8.10
2023-01-29T01:57:55.762Z,7.90
2023-01-29T02:00:22.222Z,7.80
2023-01-29T02:02:48.696Z,8.00
2023-01-29T02:05:15.173Z,7.90
2023-01-29T02:07:41.672Z,8.00
2023-01-29T02:10:08.153Z,8.00
2023-01-29T02:12:34.631Z,8.10
2023-01-29T02:15:01.099Z,8.10
2023-01-29T02:17:27.653Z,7.90
2023-01-29T02:19:54.184Z,7.90
2023-01-29T02:22:20.662Z,7.90
2023-01-29T02:24:47.157Z,8.00
2023-01-29T02:27:13.636Z,8.00
2023-01-29T02:29:40.111Z,7.80
2023-01-29T02:32:06.684Z,8.00
2023-01-29T02:34:33.197Z,7.70
2023-01-29T02:36:59.672Z,7.90
2023-01-29T02:39:26.120Z,7.80
2023-01-29T02:41:52.624Z,7.90
2023-01-29T02:44:19.085Z,7.90
2023-01-29T02:46:45.569Z,8.00
2023-01-29T02:49:12.062Z,7.70
2023-01-29T02:51:38.544Z,7.80
2023-01-29T02:54:05.012Z,7.80
2023-01-29T02:56:31.500Z,7.80
2023-01-29T02:58:57.933Z,7.70
2023-01-29T03:01:24.433Z,7.90
2023-01-29T03:03:50.976Z,7.70
2023-01-29T03:06:17.438Z,7.80
2023-01-29T03:08:43.919Z,7.80
2023-01-29T03:11:10.374Z,7.70
2023-01-29T03:13:36.855Z,7.70
2023-01-29T03:16:03.316Z,7.80
2023-01-29T03:18:29.806Z,7.80
2023-01-29T03:20:56.290Z,8.00
2023-01-29T03:23:22.800Z,7.80
2023-01-29T03:25:49.286Z,7.50
2023-01-29T03:28:15.805Z,7.80
2023-01-29T03:30:42.270Z,7.90
2023-01-29T03:33:08.800Z,7.80
2023-01-29T03:35:35.303Z,7.80
2023-01-29T03:38:01.821Z,7.80
2023-01-29T03:40:29.403Z,7.90
2023-01-29T03:42:55.894Z,7.90
2023-01-29T03:45:22.378Z,8.00
2023-01-29T03:47:48.856Z,7.90
2023-01-29T03:50:15.803Z,7.80
2023-01-29T03:52:42.477Z,7.80
2023-01-29T03:55:08.961Z,7.70
2023-01-29T03:57:35.444Z,7.60
2023-01-29T04:00:01.936Z,7.90
2023-01-29T04:02:28.408Z,8.00
2023-01-29T04:04:54.881Z,7.90
2023-01-29T04:07:21.342Z,7.80
2023-01-29T04:09:47.827Z,7.80
2023-01-29T04:12:14.283Z,7.70
2023-01-29T04:14:40.753Z,7.60
2023-01-29T04:17:07.239Z,7.60
2023-01-29T04:19:33.716Z,7.70
2023-01-29T04:22:00.206Z,7.70
2023-01-29T04:24:26.727Z,7.80
2023-01-29T04:26:53.223Z,7.60
2023-01-29T04:29:19.710Z,7.60
2023-01-29T04:31:46.224Z,7.60
2023-01-29T04:34:12.731Z,7.50
2023-01-29T04:36:39.214Z,7.60
2023-01-29T04:39:05.732Z,7.70
2023-01-29T04:41:32.214Z,7.60
2023-01-29T04:43:58.722Z,7.60
2023-01-29T04:46:25.203Z,7.60
2023-01-29T04:48:51.686Z,7.60
2023-01-29T04:51:18.174Z,7.50
2023-01-29T04:53:44.670Z,7.40
2023-01-29T04:56:11.156Z,7.40
2023-01-29T04:58:37.631Z,7.60
2023-01-29T05:01:04.111Z,7.40
2023-01-29T05:03:30.574Z,7.40
2023-01-29T05:05:57.039Z,7.60
2023-01-29T05:08:23.516Z,7.50
2023-01-29T05:10:50.135Z,7.50
2023-01-29T05:13:16.603Z,7.40
2023-01-29T05:15:43.158Z,7.40
2023-01-29T05:18:09.685Z,7.60
2023-01-29T05:20:36.173Z,7.60
2023-01-29T05:23:02.653Z,7.60
2023-01-29T05:25:29.132Z,7.50
2023-01-29T05:27:55.605Z,7.50
2023-01-29T05:30:22.280Z,7.50
2023-01-29T05:32:48.784Z,7.20
2023-01-29T05:35:15.253Z,7.30
2023-01-29T05:37:41.748Z,7.30
2023-01-29T05:40:08.231Z,7.50
2023-01-29T05:42:34.700Z,7.60
2023-01-29T05:45:01.201Z,7.40
2023-01-29T05:47:27.681Z,7.40
2023-01-29T05:49:54.192Z,7.40
2023-01-29T05:52:20.686Z,7.30
2023-01-29T05:54:47.186Z,7.30
2023-01-29T05:57:13.641Z,7.30
2023-01-29T05:59:40.142Z,7.40
2023-01-29T06:02:06.673Z,7.40
2023-01-29T06:04:33.197Z,7.30
2023-01-29T06:06:59.708Z,7.40
2023-01-29T06:09:26.177Z,7.30
2023-01-29T06:11:52.679Z,7.40
2023-01-29T06:14:19.213Z,7.40
2023-01-29T06:16:45.691Z,7.30
2023-01-29T06:19:12.177Z,7.50
2023-01-29T06:21:38.653Z,7.50
2023-01-29T06:24:05.179Z,7.40
2023-01-29T06:26:31.689Z,7.40
2023-01-29T06:28:58.176Z,7.50
2023-01-29T06:31:37.741Z,7.50
2023-01-29T06:34:05.130Z,7.40
2023-01-29T06:36:31.608Z,7.50
2023-01-29T06:38:58.083Z,7.50
2023-01-29T06:41:24.561Z,7.30
2023-01-29T06:43:51.029Z,7.30
2023-01-29T06:46:17.524Z,7.30
2023-01-29T06:48:43.991Z,7.30
2023-01-29T06:51:10.465Z,7.30
2023-01-29T06:53:36.952Z,7.30
2023-01-29T06:56:03.434Z,7.30
2023-01-29T06:58:29.913Z,7.20
2023-01-29T07:00:56.463Z,7.20
2023-01-29T07:03:22.973Z,7.30
2023-01-29T07:05:49.469Z,7.30
2023-01-29T07:08:15.926Z,7.30
2023-01-29T07:10:42.395Z,7.30
2023-01-29T07:13:08.877Z,7.30
2023-01-29T07:15:37.160Z,7.30
2023-01-29T07:18:03.753Z,7.40
2023-01-29T07:20:30.306Z,7.20
2023-01-29T07:22:56.790Z,7.30
2023-01-29T07:25:23.297Z,7.30
2023-01-29T07:27:49.782Z,7.40
2023-01-29T07:30:16.591Z,7.40
2023-01-29T07:32:43.192Z,7.40
2023-01-29T07:35:09.685Z,7.40
2023-01-29T07:37:41.606Z,7.40
2023-01-29T07:40:08.075Z,7.40
2023-01-29T07:42:34.556Z,7.70
2023-01-29T07:45:01.041Z,7.50
2023-01-29T07:47:27.512Z,7.50
2023-01-29T07:49:53.991Z,7.50
2023-01-29T07:52:22.303Z,7.50
2023-01-29T07:54:48.950Z,7.60
2023-01-29T07:57:15.430Z,7.50
2023-01-29T07:59:41.902Z,7.50
2023-01-29T08:02:08.438Z,7.70
2023-01-29T08:04:34.936Z,7.50
2023-01-29T08:07:01.421Z,7.40
2023-01-29T08:09:27.914Z,7.40
2023-01-29T08:11:54.386Z,7.20
2023-01-29T08:14:23.621Z,7.30
2023-01-29T08:16:50.156Z,7.40
2023-01-29T08:19:16.653Z,7.50
2023-01-29T08:21:43.147Z,7.40
2023-01-29T08:24:09.628Z,7.30
2023-01-29T08:26:36.117Z,7.20
2023-01-29T08:29:02.576Z,7.30
2023-01-29T08:31:29.144Z,7.30
2023-01-29T08:33:55.642Z,7.40
2023-01-29T08:36:22.143Z,7.30
2023-01-29T08:38:48.613Z,7.30
2023-01-29T08:41:15.097Z,7.30
2023-01-29T08:43:41.573Z,7.20
2023-01-29T08:46:08.122Z,7.30
2023-01-29T08:48:34.618Z,7.30
2023-01-29T08:51:01.088Z,7.30
2023-01-29T08:53:27.572Z,7.30
2023-01-29T08:55:54.339Z,7.30
2023-01-29T08:58:20.813Z,7.40
2023-01-29T09:00:47.689Z,7.10
2023-01-29T09:03:14.170Z,7.10
2023-01-29T09:05:40.658Z,7.10
2023-01-29T09:08:07.146Z,7.10
2023-01-29T09:10:33.615Z,7.20
2023-01-29T09:13:00.098Z,7.20
2023-01-29T09:15:26.593Z,7.30
2023-01-29T09:17:53.075Z,7.40
2023-01-29T09:20:19.531Z,7.40
2023-01-29T09:22:46.001Z,7.30
2023-01-29T09:25:12.479Z,7.10
2023-01-29T09:27:38.944Z,7.40
2023-01-29T09:30:05.435Z,7.20
2023-01-29T09:33:01.735Z,7.20
2023-01-29T09:35:18.596Z,7.00
2023-01-29T09:37:45.245Z,7.20
2023-01-29T09:40:11.713Z,7.20
2023-01-29T09:42:38.175Z,6.90
2023-01-29T09:45:04.647Z,7.00
2023-01-29T09:47:31.140Z,7.00
2023-01-29T09:49:57.629Z,6.90
2023-01-29T09:52:24.097Z,7.00
2023-01-29T09:54:50.583Z,7.10
2023-01-29T09:57:17.068Z,7.00
2023-01-29T09:59:43.541Z,6.90
2023-01-29T10:02:10.123Z,6.90
2023-01-29T10:04:36.703Z,6.80
2023-01-29T10:07:03.249Z,6.70
2023-01-29T10:09:29.733Z,6.80
2023-01-29T10:11:58.131Z,6.90
2023-01-29T10:14:24.866Z,6.60
2023-01-29T10:16:51.431Z,6.90
2023-01-29T10:19:17.926Z,7.10
2023-01-29T10:21:44.431Z,7.10
2023-01-29T10:24:10.900Z,6.90
2023-01-29T10:26:37.419Z,6.90
2023-01-29T10:29:03.915Z,7.10
2023-01-29T10:31:30.500Z,6.90
2023-01-29T10:34:02.567Z,6.90
2023-01-29T10:36:29.333Z,6.90
2023-01-29T10:38:55.789Z,6.80
2023-01-29T10:41:22.262Z,7.00
2023-01-29T10:43:48.744Z,7.10
2023-01-29T10:46:15.215Z,7.00
2023-01-29T10:48:41.692Z,7.00
2023-01-29T10:51:08.141Z,6.90
2023-01-29T10:53:34.608Z,7.00
2023-01-29T10:56:02.499Z,6.90
2023-01-29T10:58:32.229Z,7.00
2023-01-29T11:00:58.713Z,7.00
2023-01-29T11:03:28.388Z,7.00
2023-01-29T11:05:55.368Z,6.90
2023-01-29T11:08:23.780Z,7.00
2023-01-29T11:10:50.272Z,6.90
2023-01-29T11:13:16.778Z,6.90
2023-01-29T11:15:43.255Z,6.80
2023-01-29T11:18:09.756Z,6.80
2023-01-29T11:20:36.229Z,7.00
2023-01-29T11:23:02.721Z,7.00
2023-01-29T11:25:29.203Z,7.00
2023-01-29T11:27:55.675Z,7.10
2023-01-29T11:30:22.162Z,7.10
2023-01-29T11:32:48.655Z,7.10
2023-01-29T11:35:15.129Z,7.10
2023-01-29T11:37:41.608Z,7.10
2023-01-29T11:40:08.093Z,7.00
2023-01-29T11:42:34.564Z,7.00
2023-01-29T11:45:01.048Z,7.00
2023-01-29T11:47:27.690Z,7.00
2023-01-29T11:49:54.262Z,6.90
2023-01-29T11:52:20.740Z,6.90
2023-01-29T11:54:47.224Z,7.00
2023-01-29T11:57:19.387Z,7.00
2023-01-29T11:59:46.404Z,7.00
2023-01-29T12:02:12.886Z,7.10
2023-01-29T12:04:39.367Z,7.20
2023-01-29T12:07:05.858Z,7.00
2023-01-29T12:09:35.841Z,6.90
2023-01-29T12:12:02.306Z,6.90
2023-01-29T12:14:28.780Z,6.80
2023-01-29T12:16:55.423Z,6.90
2023-01-29T12:19:21.906Z,6.90
2023-01-29T12:21:48.404Z,7.00
2023-01-29T12:24:14.933Z,7.00
2023-01-29T12:26:41.743Z,6.80
2023-01-29T12:29:08.263Z,6.90
2023-01-29T12:31:34.775Z,6.80
2023-01-29T12:34:01.282Z,6.90
2023-01-29T12:36:27.764Z,7.00
2023-01-29T12:38:54.273Z,7.30
2023-01-29T12:41:20.731Z,7.60
2023-01-29T12:43:47.192Z,7.80
2023-01-29T12:46:13.685Z,7.90
2023-01-29T12:48:40.169Z,8.00
2023-01-29T12:51:06.665Z,8.20
2023-01-29T12:53:35.921Z,8.20
2023-01-29T12:56:02.410Z,8.20
2023-01-29T12:58:28.882Z,8.30
2023-01-29T13:00:55.408Z,8.50
2023-01-29T13:03:21.984Z,8.60
2023-01-29T13:05:53.877Z,8.80
2023-01-29T13:08:20.354Z,8.70
2023-01-29T13:10:46.863Z,8.80
2023-01-29T13:13:13.332Z,9.00
2023-01-29T13:15:39.844Z,9.10
2023-01-29T13:18:06.315Z,9.10
2023-01-29T13:20:32.804Z,9.20
2023-01-29T13:22:59.265Z,9.40
2023-01-29T13:25:25.780Z,9.40
2023-01-29T13:27:52.265Z,9.50
2023-01-29T13:30:18.834Z,9.30
2023-01-29T13:32:46.742Z,9.50
2023-01-29T13:35:13.827Z,9.70
2023-01-29T13:37:40.334Z,9.90
2023-01-29T13:40:06.884Z,9.80
2023-01-29T13:42:33.351Z,9.70
2023-01-29T13:44:59.835Z,9.70
2023-01-29T13:47:26.321Z,9.70
2023-01-29T13:49:52.807Z,9.80
2023-01-29T13:52:19.278Z,9.80
2023-01-29T13:54:45.784Z,10.00
2023-01-29T13:57:12.262Z,10.10
2023-01-29T13:59:38.725Z,10.00
2023-01-29T14:02:05.281Z,10.20
2023-01-29T14:04:31.788Z,10.30
2023-01-29T14:06:58.270Z,10.30
2023-01-29T14:09:24.740Z,10.30
2023-01-29T14:11:53.944Z,10.30
2023-01-29T14:14:20.407Z,10.40
2023-01-29T14:16:47.990Z,10.50
2023-01-29T14:19:14.505Z,10.50
2023-01-29T14:21:40.974Z,10.60
2023-01-29T14:24:07.431Z,10.50
2023-01-29T14:26:33.901Z,10.50
2023-01-29T14:29:00.371Z,10.40
2023-01-29T14:31:26.924Z,10.40
2023-01-29T14:33:53.441Z,10.30
2023-01-29T14:36:23.952Z,10.20
2023-01-29T14:38:54.152Z,10.20
2023-01-29T14:41:20.642Z,10.20
2023-01-29T14:43:47.135Z,10.40
2023-01-29T14:46:13.641Z,10.40
2023-01-29T14:48:40.125Z,10.40
2023-01-29T14:51:08.423Z,10.50
2023-01-29T14:53:36.055Z,10.50
2023-01-29T14:56:02.533Z,10.60
2023-01-29T14:58:29.012Z,10.60
2023-01-29T15:00:55.493Z,10.70
2023-01-29T15:03:21.994Z,10.70
2023-01-29T15:05:48.572Z,10.70
2023-01-29T15:08:15.251Z,10.60
2023-01-29T15:10:41.736Z,10.60
2023-01-29T15:13:12.160Z,10.50
2023-01-29T15:15:38.682Z,10.40
2023-01-29T15:18:05.171Z,10.50
2023-01-29T15:20:31.653Z,10.50
2023-01-29T15:22:58.136Z,10.50
2023-01-29T15:25:24.637Z,10.60
2023-01-29T15:27:51.139Z,10.50
2023-01-29T15:30:17.649Z,10.40
2023-01-29T15:32:44.120Z,10.70
2023-01-29T15:35:10.603Z,10.70
2023-01-29T15:37:37.090Z,10.70
2023-01-29T15:40:03.576Z,10.60
2023-01-29T15:42:30.075Z,10.70
2023-01-29T15:44:56.575Z,10.70
2023-01-29T15:47:23.085Z,10.60
2023-01-29T15:49:49.578Z,10.70
2023-01-29T15:52:16.069Z,10.60
2023-01-29T15:54:42.573Z,10.60
2023-01-29T15:57:09.053Z,10.70
2023-01-29T15:59:35.565Z,10.60
2023-01-29T16:02:02.135Z,10.60
2023-01-29T16:04:28.608Z,10.80
2023-01-29T16:06:55.116Z,10.80
2023-01-29T16:09:21.619Z,10.80
2023-01-29T16:11:48.104Z,10.70
2023-01-29T16:14:14.575Z,10.50
2023-01-29T16:16:41.079Z,10.60
2023-01-29T16:19:07.560Z,10.60
2023-01-29T16:21:34.049Z,10.50
2023-01-29T16:24:00.532Z,10.60
2023-01-29T16:26:27.053Z,10.60
2023-01-29T16:28:53.521Z,10.60
2023-01-29T16:31:20.123Z,10.70
2023-01-29T16:33:46.703Z,10.70
2023-01-29T16:36:13.191Z,10.70
2023-01-29T16:38:39.671Z,10.80
2023-01-29T16:41:12.059Z,10.90
2023-01-29T16:43:42.536Z,10.90
2023-01-29T16:46:09.211Z,10.90
2023-01-29T16:48:35.921Z,10.90
2023-01-29T16:51:02.419Z,10.80
2023-01-29T16:53:28.909Z,10.60
2023-01-29T16:55:55.393Z,10.50
2023-01-29T16:58:21.925Z,10.50
2023-01-29T17:00:48.515Z,10.70
2023-01-29T17:03:15.065Z,10.60
2023-01-29T17:05:41.531Z,10.60
2023-01-29T17:08:08.022Z,10.70
2023-01-29T17:10:34.505Z,10.70
2023-01-29T17:13:00.974Z,10.70
2023-01-29T17:15:27.462Z,10.90
2023-01-29T17:17:53.955Z,10.90
2023-01-29T17:20:20.418Z,10.90
2023-01-29T17:22:46.918Z,10.90
2023-01-29T17:25:13.437Z,10.70
2023-01-29T17:27:39.936Z,10.70
2023-01-29T17:30:06.399Z,10.70
2023-01-29T17:32:45.243Z,10.70
2023-01-29T17:35:14.087Z,10.50
2023-01-29T17:37:40.610Z,10.60
2023-01-29T17:40:07.087Z,10.70
2023-01-29T17:42:33.565Z,10.80
2023-01-29T17:45:00.037Z,10.90
2023-01-29T17:47:27.329Z,10.90
2023-01-29T17:49:53.856Z,10.80
2023-01-29T17:52:20.394Z,11.00
2023-01-29T17:54:46.863Z,11.10
2023-01-29T17:57:13.341Z,11.00
2023-01-29T17:59:39.827Z,11.10
2023-01-29T18:02:06.363Z,10.90
2023-01-29T18:04:32.881Z,10.90
2023-01-29T18:06:59.366Z,10.70
2023-01-29T18:09:25.857Z,10.70
2023-01-29T18:11:52.444Z,10.80
2023-01-29T18:14:18.917Z,10.80
2023-01-29T18:16:45.390Z,10.70
2023-01-29T18:19:11.870Z,10.60
2023-01-29T18:21:38.317Z,10.50
2023-01-29T18:24:04.798Z,10.80
2023-01-29T18:26:31.321Z,10.90
2023-01-29T18:28:57.912Z,10.90
2023-01-29T18:31:24.440Z,10.90
2023-01-29T18:33:50.917Z,10.80
2023-01-29T18:36:17.397Z,10.90
2023-01-29T18:38:43.870Z,10.90
2023-01-29T18:41:10.329Z,10.80
2023-01-29T18:43:36.813Z,10.50
2023-01-29T18:46:03.330Z,10.70
2023-01-29T18:48:29.829Z,10.20
2023-01-29T18:50:56.295Z,10.50
2023-01-29T18:53:22.789Z,10.50
2023-01-29T18:55:50.345Z,10.50
2023-01-29T18:58:28.621Z,10.60
2023-01-29T19:01:03.053Z,10.50
2023-01-29T19:03:30.199Z,9.90
2023-01-29T19:05:56.663Z,10.10
2023-01-29T19:08:23.158Z,10.00
2023-01-29T19:10:49.620Z,9.80
2023-01-29T19:13:16.112Z,9.90
2023-01-29T19:15:42.616Z,9.90
2023-01-29T19:18:09.085Z,9.70
2023-01-29T19:20:35.574Z,9.70
2023-01-29T19:23:02.054Z,9.60
2023-01-29T19:25:28.550Z,9.50
2023-01-29T19:27:55.031Z,9.70
2023-01-29T19:30:21.548Z,9.60
2023-01-29T19:32:48.034Z,9.60
2023-01-29T19:35:14.523Z,9.40
2023-01-29T19:37:41.026Z,9.20
2023-01-29T19:40:07.500Z,9.40
2023-01-29T19:42:33.975Z,9.60
2023-01-29T19:45:00.461Z,9.40
2023-01-29T19:47:26.957Z,9.10
2023-01-29T19:49:53.475Z,9.20
2023-01-29T19:52:19.959Z,9.10
2023-01-29T19:54:46.449Z,9.00
2023-01-29T19:57:12.931Z,9.00
2023-01-29T19:59:39.397Z,9.00
2023-01-29T20:02:05.887Z,9.20
2023-01-29T20:04:32.410Z,9.10
2023-01-29T20:06:58.894Z,9.00
2023-01-29T20:09:25.401Z,9.00
2023-01-29T20:11:51.894Z,8.90
2023-01-29T20:14:18.392Z,8.80
2023-01-29T20:16:44.869Z,8.90
2023-01-29T20:19:13.921Z,8.90
2023-01-29T20:21:41.563Z,8.80
2023-01-29T20:24:08.652Z,8.80
2023-01-29T20:26:35.191Z,8.80
2023-01-29T20:29:01.682Z,8.70
2023-01-29T20:31:28.180Z,8.80
2023-01-29T20:33:54.658Z,8.60
2023-01-29T20:36:21.135Z,8.60
2023-01-29T20:38:47.618Z,8.60
2023-01-29T20:41:14.098Z,8.70
2023-01-29T20:43:40.587Z,8.70
2023-01-29T20:46:07.107Z,8.70
2023-01-29T20:48:33.629Z,8.50
2023-01-29T20:51:00.144Z,8.50
2023-01-29T20:53:30.372Z,8.60
2023-01-29T20:55:56.908Z,8.70
2023-01-29T20:58:23.446Z,8.50
2023-01-29T21:00:50.006Z,8.60
2023-01-29T21:03:16.501Z,8.50
2023-01-29T21:05:43.038Z,8.40
2023-01-29T21:08:09.586Z,8.50
2023-01-29T21:10:36.074Z,8.60
2023-01-29T21:13:06.461Z,8.50
2023-01-29T21:15:32.938Z,8.50
2023-01-29T21:17:59.395Z,8.40
2023-01-29T21:20:25.854Z,8.50
2023-01-29T21:22:52.338Z,8.40
2023-01-29T21:25:18.828Z,8.40
2023-01-29T21:27:45.298Z,8.40
2023-01-29T21:30:11.781Z,8.40
2023-01-29T21:32:38.272Z,8.50
2023-01-29T21:35:04.761Z,8.40
2023-01-29T21:37:31.254Z,8.40
2023-01-29T21:39:57.723Z,8.40
2023-01-29T21:42:24.190Z,8.40
2023-01-29T21:44:50.665Z,8.40
2023-01-29T21:47:17.140Z,8.40
2023-01-29T21:49:43.609Z,8.40
2023-01-29T21:52:10.097Z,8.30
2023-01-29T21:54:36.585Z,8.30
2023-01-29T21:57:03.064Z,8.20
2023-01-29T21:59:29.544Z,8.30
2023-01-29T22:01:56.046Z,8.30
2023-01-29T22:04:22.577Z,8.30
2023-01-29T22:06:49.044Z,8.30
2023-01-29T22:09:15.520Z,8.20
2023-01-29T22:11:42.081Z,8.20
2023-01-29T22:14:08.552Z,8.30
2023-01-29T22:16:35.046Z,8.30
2023-01-29T22:19:01.564Z,8.20
2023-01-29T22:21:28.042Z,8.20
2023-01-29T22:23:54.513Z,8.20
2023-01-29T22:26:21.058Z,8.20
2023-01-29T22:28:47.566Z,8.20
2023-01-29T22:31:14.063Z,8.30
2023-01-29T22:33:40.559Z,8.40
2023-01-29T22:36:07.099Z,8.20
2023-01-29T22:38:33.591Z,8.20
2023-01-29T22:41:00.118Z,8.20
2023-01-29T22:43:26.607Z,8.30
2023-01-29T22:45:53.133Z,8.20
2023-01-29T22:48:19.596Z,8.20
2023-01-29T22:50:46.092Z,8.20
2023-01-29T22:53:12.566Z,8.30
2023-01-29T22:55:39.070Z,8.40
2023-01-29T22:58:05.540Z,8.30
2023-01-29T23:00:32.051Z,8.50
2023-01-29T23:02:58.519Z,8.30
2023-01-29T23:05:25.024Z,8.20
2023-01-29T23:07:51.510Z,8.10
2023-01-29T23:10:18.287Z,8.10
2023-01-29T23:12:44.930Z,8.10
2023-01-29T23:15:11.447Z,8.10
2023-01-29T23:17:37.948Z,8.10
2023-01-29T23:20:04.437Z,8.20
2023-01-29T23:22:30.949Z,8.10
2023-01-29T23:24:57.413Z,8.10
2023-01-29T23:27:23.890Z,8.00
2023-01-29T23:29:50.378Z,8.00
2023-01-29T23:32:16.842Z,8.00
2023-01-29T23:34:43.305Z,8.00
2023-01-29T23:37:09.798Z,8.10
2023-01-29T23:39:36.286Z,8.00
2023-01-29T23:42:02.762Z,8.10
2023-01-29T23:44:29.218Z,8.00
2023-01-29T23:46:55.734Z,8.10
2023-01-29T23:49:22.260Z,8.10
2023-01-29T23:51:48.742Z,8.10
2023-01-29T23:54:15.199Z,8.10
2023-01-29T23:56:41.678Z,8.10
2023-01-29T23:59:08.140Z,8.10
